KSPW

Spencer Municipal Airport

Spencer, Iowa, USA
METAR KSPW 201053Z AUTO 07011KT 5SM -SN OVC042 M17/M21 A3029 RMK AO2 SLP292 P0000 T11721211
Observed Flight Rules
Jan-20 @ 10:53 UTC (20 minutes ago) Marginal Visual Flight Rules
Wind Visibility Clouds Conditions
70° at 11 knots 5 miles
  • Overcast at 4,200' AGL
  • Light Snow
Temperatures Readings Precipitation
Current -17°C / 1°F
Dewpoint -21°C / -6°F
Humidity 71%
Altimeter 30.29" Hg
Pressure 1029.2 hPa
Elevation 403
Current Rain 0.01
METAR KSPW 201053Z AUTO 07011KT 5SM -SN OVC042 M17/M21 A3029 RMK AO2 SLP292 P0000 T11721211
Observed Flight Rules
Jan-20 @ 10:53 UTC
(20 minutes ago)
MVFR
Wind Visibility
70° at 11 knots 5 miles
Clouds
  • Overcast at 4,200' AGL
Conditions
  • Light Snow
Temperature Dewpoint
-17°C / 1°F -21°C / -6°F
Humidity Altimeter Pressure
71% 30.29" Hg 1029.2 hPa
Current Rain
0.01